Smethwick, United Kingdom
Current Conditions -  °F | °C
As of 9:20 PM on Wednesday 26 Nov 2014 (Local Time) from EGBB Reporting Station
Moderate Fog Moderate Fog  
Wind Chill: 45°   Ceiling: 100
Heat Index: 45°   Visibility: 0.31mi
Dew Point: 45°   Wind: 3mph
Humidity: 100%   Direction: NA
Pressure: 29.77"   Gusts: NA
Location:  52.49°N, 1.97°W
Report Text: EGBB 262120Z VRB03KT 0500 R33/1300 FG OVC001 07/07 Q1008
Loading
Personal Weather Stations






























Interactive Weather Map New forecast layout! Learn more

10-Day Weather Forecast

Advertisements
Track Severe Weather on mobile